KVBG/VBG METAR and TAF weather

Enter ICAO airport designator
Station Type Date Time Source
KVBG METAR 2019/10/14 06:43 UTC NOAA

KVBG 140643Z AUTO 00000KT 1/2SM R30/4000FT FG VV001 11/10 A2991 RMK AO2 VIS 2 1/4 RWY12 SLP131 $


Station Type Date Time Source
KVBG Decoded METAR 2019/10/14 06:43 UTC NOAA

Lompoc, Vandenberg Air Force Base, CA, United States (KVBG) 34-43-46N 120-34-36W 121M
Oct 14, 2019 - 02:43 AM EDT / 2019.10.14 0643 UTC
Wind: Calm:0
Visibility: 1/2 mile(s):0
Sky conditions: obscured
Weather: fog
Temperature: 51 F (11 C)
Dew Point: 50 F (10 C)
Relative Humidity: 93%
Pressure (altimeter): 29.91 in. Hg (1012 hPa)
ob: KVBG 140643Z AUTO 00000KT 1/2SM R30/4000FT FG VV001 11/10 A2991 RMK AO2 VIS 2 1/4 RWY12 SLP131
cycle: 6

Station Type Date Time Source
KVBG TAF 2019/10/13 22:03 UTC NOAA

TAF TAF KVBG 122200Z 1222/1404 29009KT 9999 SKC QNH2984INS
BECMG 1403/1404 02006KT 3200 BR BKN006 QNH2990INS TX18/1321Z TN11/1312Z LAST NO
AMDS AFT 1223 NEXT 1514

Example: see airport list